Time;durP1;ratioP1;P1;durP2;ratioP2;P2;SDS_P1;SDS_P2;PMS_P1;PMS_P2;Temp;Humidity;BMP_temperature;BMP_pressure;BME280_temperature;BME280_humidity;BME280_pressure;Samples;Min_cycle;Max_cycle;Signal;HPM_P1;HPM_P2
2021/07/22 00:01:28;;;;;;;9.33;6.60;;;16.60;32.70;;;;;;5031395;28;20531;-55
2021/07/22 00:03:53;;;;;;;7.77;6.87;;;16.60;32.50;;;;;;5031912;28;20201;-55
2021/07/22 00:06:19;;;;;;;7.80;7.10;;;16.50;36.60;;;;;;5032742;28;20192;-51
2021/07/22 00:08:44;;;;;;;7.90;7.10;;;16.50;38.10;;;;;;5024787;28;20664;-53
2021/07/22 00:11:10;;;;;;;8.80;7.40;;;16.50;40.60;;;;;;5013137;28;20296;-51
2021/07/22 00:13:35;;;;;;;9.50;7.63;;;16.50;40.80;;;;;;5031393;28;20184;-56
2021/07/22 00:16:01;;;;;;;8.23;7.10;;;16.40;40.10;;;;;;5023280;28;20546;-53
2021/07/22 00:18:26;;;;;;;8.87;7.13;;;16.50;41.10;;;;;;5020452;28;20223;-56
2021/07/22 00:20:52;;;;;;;8.20;7.40;;;16.40;43.30;;;;;;5031948;28;20190;-57
2021/07/22 00:23:18;;;;;;;8.57;7.47;;;16.40;44.80;;;;;;5031496;28;20188;-51
2021/07/22 00:25:43;;;;;;;7.87;7.17;;;16.40;42.00;;;;;;5031356;28;20333;-52
2021/07/22 00:28:09;;;;;;;8.30;7.50;;;16.30;45.90;;;;;;5032084;28;20175;-49
2021/07/22 00:30:35;;;;;;;8.07;7.27;;;16.20;47.90;;;;;;5031475;28;20690;-53
2021/07/22 00:33:01;;;;;;;8.00;7.20;;;16.20;51.10;;;;;;5022695;28;20511;-50
2021/07/22 00:35:29;;;;;;;10.23;7.70;;;16.10;54.30;;;;;;5032268;28;20446;-53
2021/07/22 00:37:56;;;;;;;8.00;7.20;;;16.10;55.90;;;;;;5035145;28;20178;-53
2021/07/22 00:40:21;;;;;;;8.67;7.03;;;16.10;57.40;;;;;;5032026;28;20179;-53
2021/07/22 00:43:00;;;;;;;8.60;7.70;;;16.10;56.60;;;;;;5031666;28;20458;-50
2021/07/22 00:45:27;;;;;;;8.30;7.60;;;16.20;52.40;;;;;;5021310;28;20210;-50
2021/07/22 00:47:53;;;;;;;8.40;7.20;;;16.20;50.60;;;;;;5024213;28;20436;-54
2021/07/22 00:50:18;;;;;;;8.37;7.43;;;16.20;50.30;;;;;;5030552;28;20213;-53
2021/07/22 00:52:44;;;;;;;8.73;7.83;;;16.20;50.40;;;;;;5032051;28;20712;-54
2021/07/22 00:55:12;;;;;;;8.47;7.67;;;16.10;52.40;;;;;;5031420;28;20193;-51
2021/07/22 00:57:37;;;;;;;8.47;7.20;;;16.00;56.90;;;;;;5029877;28;20180;-59
2021/07/22 01:00:03;;;;;;;8.33;7.40;;;16.00;58.40;;;;;;5031100;28;20434;-55
2021/07/22 01:02:29;;;;;;;8.67;7.17;;;16.00;61.30;;;;;;5026954;28;20225;-55
2021/07/22 01:04:54;;;;;;;7.00;6.13;;;16.00;62.70;;;;;;5027397;28;20491;-54
2021/07/22 01:07:20;;;;;;;8.00;7.23;;;16.00;64.40;;;;;;5031064;28;20243;-53
2021/07/22 01:09:45;;;;;;;8.17;7.27;;;16.00;63.70;;;;;;5031640;28;20539;-53
2021/07/22 01:12:11;;;;;;;9.53;7.40;;;15.90;62.50;;;;;;5032772;28;20189;-51
2021/07/22 01:14:36;;;;;;;8.70;7.20;;;16.00;64.60;;;;;;5032975;28;20657;-56
2021/07/22 01:17:10;;;;;;;8.30;7.50;;;16.00;60.60;;;;;;5031322;28;20278;-55
2021/07/22 01:19:35;;;;;;;8.00;7.20;;;16.00;60.00;;;;;;5032449;28;20214;-52
2021/07/22 01:22:01;;;;;;;9.13;7.07;;;16.00;55.90;;;;;;5032986;28;20555;-53
2021/07/22 01:24:26;;;;;;;7.57;6.87;;;15.90;55.40;;;;;;5029111;28;20234;-54
2021/07/22 01:26:52;;;;;;;9.23;7.40;;;16.00;48.80;;;;;;5018966;28;20728;-55
2021/07/22 01:29:17;;;;;;;9.73;6.80;;;16.00;48.80;;;;;;5033077;28;20186;-53
2021/07/22 01:31:43;;;;;;;8.43;7.63;;;15.90;52.40;;;;;;5032171;28;20216;-53
2021/07/22 01:34:08;;;;;;;7.57;6.87;;;15.90;51.20;;;;;;5031539;28;20185;-52
2021/07/22 01:36:34;;;;;;;8.33;7.37;;;15.90;52.90;;;;;;5032233;28;20176;-53
2021/07/22 01:39:02;;;;;;;9.70;7.27;;;15.90;55.40;;;;;;5035955;28;20190;-51
2021/07/22 01:41:28;;;;;;;8.10;7.30;;;15.80;60.80;;;;;;5031941;28;20183;-51
2021/07/22 01:43:53;;;;;;;10.50;7.60;;;15.70;68.20;;;;;;5032608;28;20480;-53
2021/07/22 01:46:19;;;;;;;8.03;7.33;;;15.60;71.30;;;;;;5032418;28;20601;-51
2021/07/22 01:48:45;;;;;;;8.90;7.43;;;15.60;69.00;;;;;;5031636;28;20181;-54
2021/07/22 01:51:10;;;;;;;8.93;8.03;;;15.60;70.10;;;;;;5031886;28;20482;-54
2021/07/22 01:53:37;;;;;;;9.07;7.93;;;15.60;66.40;;;;;;5032021;28;20198;-53
2021/07/22 01:56:04;;;;;;;8.73;7.50;;;15.60;63.70;;;;;;5025143;28;20187;-52
2021/07/22 01:58:29;;;;;;;7.27;6.57;;;15.50;68.20;;;;;;5032158;28;20501;-53
2021/07/22 02:00:55;;;;;;;8.00;7.13;;;15.40;68.60;;;;;;5032023;28;20438;-52
2021/07/22 02:03:20;;;;;;;8.23;7.30;;;15.50;68.50;;;;;;5031907;28;20631;-52
2021/07/22 02:05:46;;;;;;;8.20;7.40;;;15.50;68.90;;;;;;5016054;28;20191;-51
2021/07/22 02:08:11;;;;;;;11.03;7.67;;;15.50;65.10;;;;;;5029409;28;20186;-57
2021/07/22 02:10:37;;;;;;;9.20;6.87;;;15.50;67.40;;;;;;5017850;28;20207;-53
2021/07/22 02:13:02;;;;;;;10.13;6.07;;;15.50;59.80;;;;;;5030961;28;20217;-54
2021/07/22 02:15:27;;;;;;;7.60;6.90;;;15.50;60.80;;;;;;5028827;28;20196;-50
2021/07/22 02:17:53;;;;;;;8.10;7.20;;;15.50;61.40;;;;;;5029040;28;20218;-48
2021/07/22 02:20:18;;;;;;;8.13;7.23;;;15.50;55.50;;;;;;5028664;28;20197;-52
2021/07/22 02:22:44;;;;;;;9.53;7.37;;;15.50;56.50;;;;;;5030192;28;20234;-54
2021/07/22 02:25:10;;;;;;;8.77;7.50;;;15.40;59.60;;;;;;5009263;28;20190;-53
2021/07/22 02:27:35;;;;;;;7.80;7.10;;;15.40;65.90;;;;;;5029497;28;20174;-52
2021/07/22 02:30:04;;;;;;;8.33;7.50;;;15.40;67.30;;;;;;5022513;28;20224;-55
2021/07/22 02:32:30;;;;;;;8.20;7.13;;;15.50;71.30;;;;;;5019736;28;20203;-53
2021/07/22 02:34:56;;;;;;;10.90;7.77;;;15.50;72.70;;;;;;5029973;28;20430;-51
2021/07/22 02:37:21;;;;;;;9.13;7.60;;;15.50;73.50;;;;;;5027737;28;20942;-53
2021/07/22 02:39:47;;;;;;;8.17;7.37;;;15.50;75.30;;;;;;5033283;28;20780;-56
2021/07/22 02:42:13;;;;;;;8.07;7.30;;;15.50;71.50;;;;;;5028936;28;20542;-54
2021/07/22 02:44:41;;;;;;;9.07;8.17;;;15.50;64.90;;;;;;5021483;28;20191;-54
2021/07/22 02:47:11;;;;;;;9.20;6.80;;;15.40;58.70;;;;;;5029360;28;20194;-51
2021/07/22 02:49:36;;;;;;;10.87;7.40;;;15.40;60.10;;;;;;5028860;28;20445;-54
2021/07/22 02:52:03;;;;;;;9.90;7.47;;;15.30;64.40;;;;;;5017705;28;20429;-52
2021/07/22 02:54:28;;;;;;;9.37;6.97;;;15.30;67.40;;;;;;5029699;28;20180;-59
2021/07/22 02:56:54;;;;;;;7.60;6.90;;;15.30;72.80;;;;;;5028493;28;20590;-53
2021/07/22 02:59:20;;;;;;;8.60;7.73;;;15.30;79.70;;;;;;5027082;28;20268;-55
2021/07/22 03:01:45;;;;;;;9.03;7.60;;;15.20;86.50;;;;;;5020725;28;20186;-54
2021/07/22 03:04:10;;;;;;;9.80;7.60;;;15.20;91.30;;;;;;5027669;28;20229;-53
2021/07/22 03:06:39;;;;;;;10.60;7.50;;;15.20;93.90;;;;;;5029884;28;20228;-52
2021/07/22 03:09:05;;;;;;;8.53;7.67;;;15.10;99.90;;;;;;5021178;28;20189;-54
2021/07/22 03:11:30;;;;;;;8.53;7.70;;;15.10;99.70;;;;;;5024405;28;20467;-54
2021/07/22 03:13:58;;;;;;;9.60;7.20;;;15.20;98.40;;;;;;5027082;28;20189;-54
2021/07/22 03:16:24;;;;;;;8.43;7.63;;;15.20;97.40;;;;;;5021862;28;20209;-55
2021/07/22 03:18:49;;;;;;;8.17;7.37;;;15.30;94.60;;;;;;5028290;28;20496;-53
2021/07/22 03:21:15;;;;;;;8.27;7.37;;;15.30;89.30;;;;;;5029634;28;20198;-54
2021/07/22 03:23:40;;;;;;;9.30;7.60;;;15.20;79.20;;;;;;5024285;28;20186;-54
2021/07/22 03:26:06;;;;;;;7.90;6.90;;;15.10;80.50;;;;;;5010032;28;20179;-54
2021/07/22 03:28:31;;;;;;;10.47;7.17;;;15.10;72.80;;;;;;5009496;28;20183;-50
2021/07/22 03:30:57;;;;;;;8.27;7.33;;;15.10;72.20;;;;;;5008925;28;20210;-53
2021/07/22 03:33:22;;;;;;;7.87;7.03;;;15.10;73.60;;;;;;5024818;28;20182;-50
2021/07/22 03:35:48;;;;;;;8.40;7.33;;;15.10;80.10;;;;;;5028789;28;20197;-55
2021/07/22 03:38:13;;;;;;;9.07;7.30;;;15.10;80.50;;;;;;5027359;28;20174;-53
2021/07/22 03:40:39;;;;;;;8.17;7.37;;;15.10;79.40;;;;;;5028575;28;20553;-53
2021/07/22 03:43:04;;;;;;;8.70;7.80;;;15.10;78.90;;;;;;5027632;28;20685;-55
2021/07/22 03:45:30;;;;;;;8.17;6.97;;;15.10;77.20;;;;;;5028408;28;20198;-52
2021/07/22 03:47:59;;;;;;;7.80;7.00;;;15.10;76.00;;;;;;5021710;28;20213;-50
2021/07/22 03:50:25;;;;;;;11.50;7.20;;;15.00;82.00;;;;;;5028639;28;20206;-55
2021/07/22 03:52:55;;;;;;;8.40;7.30;;;15.00;85.80;;;;;;5028927;28;20783;-53
2021/07/22 03:55:22;;;;;;;8.37;7.57;;;15.10;82.20;;;;;;5026384;28;20174;-56
2021/07/22 03:57:47;;;;;;;9.20;7.43;;;15.10;75.60;;;;;;5028336;28;20866;-55
2021/07/22 04:00:13;;;;;;;7.53;6.73;;;15.20;69.70;;;;;;5026988;28;20503;-54
2021/07/22 04:02:39;;;;;;;7.10;6.40;;;15.30;66.70;;;;;;5025572;28;20191;-54
2021/07/22 04:05:05;;;;;;;7.70;7.00;;;15.20;62.80;;;;;;5024937;28;20818;-49
2021/07/22 04:07:30;;;;;;;8.80;6.67;;;15.20;59.80;;;;;;5025062;28;20190;-58
2021/07/22 04:09:56;;;;;;;7.57;6.77;;;15.10;62.70;;;;;;5024036;28;20564;-54
2021/07/22 04:12:21;;;;;;;10.03;7.20;;;15.10;63.30;;;;;;5026397;28;20212;-55
2021/07/22 04:14:47;;;;;;;7.80;6.77;;;15.20;67.50;;;;;;5023657;28;20190;-48
2021/07/22 04:17:14;;;;;;;9.63;8.67;;;15.20;64.10;;;;;;5002106;28;20235;-54
2021/07/22 04:19:40;;;;;;;7.37;6.67;;;15.20;62.10;;;;;;5019898;28;20189;-51
2021/07/22 04:22:05;;;;;;;10.70;6.70;;;15.20;61.50;;;;;;5007004;28;20442;-54
2021/07/22 04:24:31;;;;;;;7.20;6.50;;;15.30;54.60;;;;;;5013275;28;20280;-53
2021/07/22 04:26:56;;;;;;;7.83;6.60;;;15.40;50.30;;;;;;5006332;28;20992;-54
2021/07/22 04:29:22;;;;;;;8.97;7.60;;;15.40;47.20;;;;;;5004864;28;20190;-52
2021/07/22 04:31:48;;;;;;;7.47;6.78;;;15.40;48.20;;;;;;5012786;28;20214;-55
2021/07/22 04:34:14;;;;;;;7.20;6.50;;;15.50;45.40;;;;;;4994707;28;20205;-54
2021/07/22 04:36:39;;;;;;;8.73;6.80;;;15.60;36.90;;;;;;5008204;28;20239;-51
2021/07/22 04:39:05;;;;;;;7.00;6.30;;;15.60;35.40;;;;;;5009402;28;20202;-55
2021/07/22 04:41:31;;;;;;;8.07;6.63;;;15.50;37.30;;;;;;5015703;28;20193;-55
2021/07/22 04:43:56;;;;;;;7.10;6.40;;;15.50;31.70;;;;;;5024818;28;20201;-53
2021/07/22 04:46:22;;;;;;;8.00;6.60;;;15.50;27.90;;;;;;5031729;28;20450;-51
2021/07/22 04:48:47;;;;;;;8.30;6.57;;;15.60;28.60;;;;;;5032318;28;20175;-59
2021/07/22 04:51:13;;;;;;;8.93;7.07;;;15.70;28.30;;;;;;5029066;28;20200;-54
2021/07/22 04:53:40;;;;;;;7.10;6.40;;;15.60;26.80;;;;;;5032333;28;20511;-54
2021/07/22 04:56:05;;;;;;;8.37;6.87;;;15.60;32.10;;;;;;5032212;28;20524;-54
2021/07/22 04:58:31;;;;;;;7.47;6.50;;;15.60;34.90;;;;;;5032332;28;20410;-55
2021/07/22 05:00:56;;;;;;;7.83;7.10;;;15.70;38.60;;;;;;5028515;28;20185;-56
2021/07/22 05:03:22;;;;;;;9.43;7.17;;;15.80;33.40;;;;;;5032151;28;20205;-52
2021/07/22 05:05:47;;;;;;;9.80;6.67;;;15.80;36.00;;;;;;5031494;28;20192;-56
2021/07/22 05:08:13;;;;;;;8.77;7.87;;;15.80;41.50;;;;;;5021054;28;20982;-54
2021/07/22 05:10:38;;;;;;;7.70;6.77;;;15.80;37.50;;;;;;5031637;28;21039;-58
2021/07/22 05:13:04;;;;;;;7.73;7.00;;;15.90;38.90;;;;;;5030995;28;20191;-58
2021/07/22 05:15:30;;;;;;;7.93;7.13;;;16.00;37.00;;;;;;5031510;28;20647;-56
2021/07/22 05:17:55;;;;;;;8.23;7.30;;;16.00;39.90;;;;;;5024592;28;20559;-52
2021/07/22 05:20:21;;;;;;;7.73;6.93;;;16.10;37.20;;;;;;5031821;28;20423;-54
2021/07/22 05:22:47;;;;;;;7.20;6.50;;;16.30;33.80;;;;;;5026597;28;20219;-58
2021/07/22 05:25:13;;;;;;;7.53;6.83;;;16.30;25.80;;;;;;5013934;28;20202;-58
2021/07/22 05:27:38;;;;;;;8.87;7.93;;;16.40;23.70;;;;;;5028544;28;20188;-56
2021/07/22 05:30:04;;;;;;;8.37;7.47;;;16.50;18.80;;;;;;5031418;28;20217;-55
2021/07/22 05:32:30;;;;;;;11.10;10.00;;;16.50;13.70;;;;;;5031212;28;20776;-54
2021/07/22 05:34:56;;;;;;;8.67;7.77;;;16.50;15.20;;;;;;5028178;28;20448;-55
2021/07/22 05:37:21;;;;;;;7.67;6.87;;;16.80;9.00;;;;;;5031094;28;20503;-55
2021/07/22 05:39:47;;;;;;;7.93;7.13;;;16.70;1.00;;;;;;5048588;28;20181;-54
2021/07/22 05:42:13;;;;;;;7.93;7.10;;;16.70;1.00;;;;;;5025523;28;20179;-52
2021/07/22 05:44:38;;;;;;;9.37;6.57;;;16.70;1.00;;;;;;5031232;28;20250;-54
2021/07/22 05:47:05;;;;;;;7.10;6.40;;;16.70;1.00;;;;;;5017159;28;20186;-49
2021/07/22 05:49:31;;;;;;;7.57;6.80;;;16.90;1.00;;;;;;5030839;28;20184;-53
2021/07/22 05:51:56;;;;;;;7.43;6.73;;;16.80;1.00;;;;;;5020978;28;20479;-54
2021/07/22 05:54:22;;;;;;;7.17;6.47;;;16.90;1.00;;;;;;5030011;28;20425;-53
2021/07/22 05:56:47;;;;;;;8.07;7.27;;;16.90;1.00;;;;;;5025055;28;20211;-59
2021/07/22 05:59:13;;;;;;;7.57;6.53;;;17.10;1.00;;;;;;5031258;28;20188;-56
2021/07/22 06:01:38;;;;;;;7.30;6.40;;;17.20;1.00;;;;;;5030694;28;20187;-54
2021/07/22 06:04:04;;;;;;;9.27;6.63;;;17.30;1.00;;;;;;5031126;28;20181;-51
2021/07/22 06:06:29;;;;;;;8.53;6.37;;;17.50;1.00;;;;;;5028771;28;20201;-52
2021/07/22 06:08:57;;;;;;;7.17;6.47;;;17.60;1.00;;;;;;5026727;28;20264;-53
2021/07/22 06:11:22;;;;;;;7.23;6.43;;;17.70;1.00;;;;;;5031733;28;20214;-54
2021/07/22 06:13:48;;;;;;;8.37;6.40;;;17.60;1.00;;;;;;5028037;28;20930;-54
2021/07/22 06:16:14;;;;;;;7.07;6.37;;;17.80;1.00;;;;;;5020802;28;20175;-59
2021/07/22 06:18:41;;;;;;;7.77;7.07;;;18.00;1.00;;;;;;5026029;28;20643;-59
2021/07/22 06:21:10;;;;;;;7.00;6.30;;;18.30;1.00;;;;;;5004900;28;20926;-53
2021/07/22 06:23:36;;;;;;;7.30;6.60;;;18.60;1.00;;;;;;5016998;28;20892;-56
2021/07/22 06:26:02;;;;;;;7.40;6.70;;;18.70;1.00;;;;;;5021669;28;20248;-54
2021/07/22 06:28:28;;;;;;;7.40;6.70;;;18.60;1.00;;;;;;5026778;28;20174;-53
2021/07/22 06:30:55;;;;;;;6.60;6.00;;;18.70;1.00;;;;;;5018825;28;20462;-53
2021/07/22 06:33:21;;;;;;;7.57;6.77;;;18.70;1.00;;;;;;5020298;28;20429;-51
2021/07/22 06:35:46;;;;;;;7.20;6.50;;;18.90;1.00;;;;;;5022201;28;20515;-56
2021/07/22 06:38:13;;;;;;;8.00;7.30;;;18.90;1.00;;;;;;5022477;28;20899;-52
2021/07/22 06:40:39;;;;;;;7.90;6.70;;;18.80;1.00;;;;;;5020885;28;20674;-53
2021/07/22 06:43:07;;;;;;;7.80;7.10;;;18.80;1.00;;;;;;5027489;28;20442;-55
2021/07/22 06:45:33;;;;;;;7.60;6.90;;;19.00;1.00;;;;;;5030148;28;20759;-57
2021/07/22 06:48:00;;;;;;;7.40;6.70;;;19.20;1.00;;;;;;5029755;28;20471;-56
2021/07/22 06:50:26;;;;;;;7.53;6.80;;;19.30;1.00;;;;;;5029680;28;20186;-56
2021/07/22 06:52:51;;;;;;;8.07;6.50;;;19.50;1.00;;;;;;5029595;28;20416;-57
2021/07/22 06:55:17;;;;;;;7.77;7.07;;;19.80;1.00;;;;;;5029892;28;20195;-59
2021/07/22 06:57:42;;;;;;;7.07;6.40;;;19.80;99.90;;;;;;5021612;28;20645;-55
2021/07/22 07:00:08;;;;;;;8.53;7.73;;;19.80;99.90;;;;;;5025632;28;20181;-53
2021/07/22 07:02:34;;;;;;;7.67;6.87;;;20.10;99.90;;;;;;5021062;28;20175;-52
2021/07/22 07:05:00;;;;;;;8.13;7.40;;;20.20;99.90;;;;;;5025640;28;20471;-49
2021/07/22 07:07:25;;;;;;;7.40;6.57;;;20.40;99.90;;;;;;5022814;28;20258;-52
2021/07/22 07:09:52;;;;;;;7.57;6.97;;;20.60;1.00;;;;;;5021369;28;20182;-53
2021/07/22 07:12:18;;;;;;;8.63;7.73;;;20.60;1.00;;;;;;5023804;28;20626;-55
2021/07/22 07:14:43;;;;;;;8.30;7.30;;;20.90;1.00;;;;;;5023609;28;20417;-53
2021/07/22 07:17:09;;;;;;;8.77;8.03;;;21.00;99.90;;;;;;5028493;28;20227;-52
2021/07/22 07:19:38;;;;;;;7.80;7.17;;;21.00;99.90;;;;;;5016224;28;20211;-52
2021/07/22 07:22:03;;;;;;;11.13;7.60;;;21.10;1.00;;;;;;5011850;28;20175;-52
2021/07/22 07:24:29;;;;;;;9.57;7.60;;;21.50;99.90;;;;;;5016923;28;20495;-51
2021/07/22 07:26:55;;;;;;;7.57;6.80;;;21.70;17.80;;;;;;5018036;28;20176;-54
2021/07/22 07:29:20;;;;;;;8.00;7.30;;;21.90;99.90;;;;;;5024255;28;20471;-55
2021/07/22 07:31:46;;;;;;;7.83;7.13;;;22.00;57.00;;;;;;5026383;28;20206;-55
2021/07/22 07:34:11;;;;;;;8.53;7.83;;;22.20;1.00;;;;;;5027494;28;20278;-58
2021/07/22 07:36:46;;;;;;;7.90;7.17;;;22.30;99.90;;;;;;5027445;28;20594;-58
2021/07/22 07:39:14;;;;;;;8.82;7.93;;;22.40;1.00;;;;;;5035290;28;20241;-51
2021/07/22 07:41:40;;;;;;;8.60;7.70;;;22.50;99.90;;;;;;5027086;28;21032;-55
2021/07/22 07:44:05;;;;;;;8.65;7.95;;;22.70;1.00;;;;;;5027461;28;20463;-58
2021/07/22 07:46:31;;;;;;;10.13;8.30;;;22.90;99.90;;;;;;5024821;28;20952;-53
2021/07/22 07:48:56;;;;;;;8.17;7.57;;;22.70;99.90;;;;;;5017729;28;20773;-52
2021/07/22 07:51:22;;;;;;;9.60;8.70;;;22.80;1.00;;;;;;5009960;28;20248;-55
2021/07/22 07:53:49;;;;;;;8.40;7.70;;;23.10;1.00;;;;;;5021117;28;20213;-54
2021/07/22 07:56:15;;;;;;;8.47;7.87;;;23.30;1.00;;;;;;5024181;28;20182;-52
2021/07/22 07:58:40;;;;;;;8.60;7.90;;;23.40;1.00;;;;;;5023525;28;20413;-54
2021/07/22 08:01:06;;;;;;;8.87;8.00;;;23.50;99.90;;;;;;5025441;28;20228;-53
2021/07/22 08:03:31;;;;;;;8.57;7.87;;;23.70;99.90;;;;;;5028199;28;20724;-51
2021/07/22 08:05:57;;;;;;;9.10;8.20;;;23.70;99.90;;;;;;5027021;28;20186;-50
2021/07/22 08:08:22;;;;;;;9.10;8.40;;;23.80;99.90;;;;;;5028345;28;20189;-54
2021/07/22 08:10:48;;;;;;;8.67;8.07;;;24.20;99.90;;;;;;5027361;28;20199;-54
2021/07/22 08:13:13;;;;;;;8.63;7.93;;;24.50;99.90;;;;;;5028143;28;20171;-52
2021/07/22 08:15:43;;;;;;;10.52;9.55;;;24.50;99.90;;;;;;5031400;28;20256;-53
2021/07/22 08:18:09;;;;;;;8.87;8.17;;;24.60;1.00;;;;;;5031858;28;20245;-54
2021/07/22 08:20:35;;;;;;;9.70;8.73;;;24.90;1.00;;;;;;5030731;28;20436;-51
2021/07/22 08:23:00;;;;;;;10.00;8.47;;;25.00;99.90;;;;;;5027534;28;20432;-54
2021/07/22 08:25:26;;;;;;;9.93;9.10;;;24.90;99.90;;;;;;5031038;28;20193;-51
2021/07/22 08:27:51;;;;;;;9.30;8.50;;;24.90;99.90;;;;;;5031305;28;20545;-56
2021/07/22 08:30:17;;;;;;;10.07;9.30;;;25.10;99.90;;;;;;5031833;28;20206;-55
2021/07/22 08:32:42;;;;;;;10.33;9.43;;;25.20;99.90;;;;;;5031202;28;20206;-55
2021/07/22 08:35:08;;;;;;;10.40;9.60;;;25.50;85.80;;;;;;5031938;28;20845;-52
2021/07/22 08:37:35;;;;;;;10.13;9.30;;;25.70;1.00;;;;;;5031861;28;20182;-54
2021/07/22 08:40:03;;;;;;;11.70;10.70;;;26.00;1.00;;;;;;5032370;28;20432;-54
2021/07/22 08:42:33;;;;;;;10.70;9.70;;;26.20;1.00;;;;;;5031632;28;20425;-53
2021/07/22 08:44:58;;;;;;;11.40;10.50;;;26.50;1.00;;;;;;5018619;28;20507;-53
2021/07/22 08:47:24;;;;;;;12.07;11.07;;;26.70;1.00;;;;;;5031640;28;20417;-54
2021/07/22 08:49:51;;;;;;;11.40;10.40;;;26.80;1.00;;;;;;5018175;28;20522;-52
2021/07/22 08:52:16;;;;;;;12.50;11.50;;;26.90;1.00;;;;;;5030058;28;20206;-53
2021/07/22 08:54:42;;;;;;;13.17;12.07;;;27.10;99.90;;;;;;5031115;28;20441;-55
2021/07/22 08:57:10;;;;;;;13.33;12.33;;;26.90;99.90;;;;;;5023988;28;20183;-55
2021/07/22 08:59:36;;;;;;;13.15;11.95;;;27.00;99.90;;;;;;5028359;28;20196;-57
2021/07/22 09:02:03;;;;;;;13.97;12.83;;;27.40;99.90;;;;;;5030393;28;20186;-53
2021/07/22 09:04:29;;;;;;;15.27;13.47;;;27.40;99.90;;;;;;5031375;28;20264;-52
2021/07/22 09:06:58;;;;;;;11.48;10.40;;;27.50;99.90;;;;;;5022049;28;20437;-55
2021/07/22 09:09:23;;;;;;;11.63;10.70;;;27.70;99.90;;;;;;5013327;28;20194;-54
2021/07/22 09:12:00;;;;;;;12.97;12.07;;;27.80;99.90;;;;;;5022073;28;20472;-53
2021/07/22 09:14:28;;;;;;;13.60;12.50;;;27.90;99.90;;;;;;5031190;28;20532;-53
2021/07/22 09:16:55;;;;;;;12.40;11.40;;;28.40;99.90;;;;;;5030536;28;20516;-52
2021/07/22 09:19:40;;;;;;;13.60;12.33;;;28.30;99.90;;;;;;5030143;28;20439;-54
2021/07/22 09:22:10;;;;;;;13.57;12.47;;;28.80;99.90;;;;;;5029674;28;20424;-54
2021/07/22 09:24:52;;;;;;;13.27;12.20;;;28.50;99.90;;;;;;5029535;28;21031;-55
2021/07/22 09:27:35;;;;;;;13.57;12.48;;;28.30;99.90;;;;;;5029206;28;20750;-54
2021/07/22 09:30:02;;;;;;;15.20;13.90;;;28.60;99.90;;;;;;5028274;28;20590;-54
2021/07/22 09:32:32;;;;;;;13.73;12.63;;;29.30;99.90;;;;;;5030437;28;20425;-57
2021/07/22 09:35:15;;;;;;;13.77;12.77;;;29.50;99.90;;;;;;5025178;28;20433;-53
2021/07/22 09:37:52;;;;;;;13.27;12.30;;;30.00;99.90;;;;;;5032484;28;20788;-55
2021/07/22 09:40:26;;;;;;;13.87;12.77;;;30.40;99.90;;;;;;5029630;28;20483;-53
2021/07/22 09:42:56;;;;;;;13.17;12.07;;;30.30;99.90;;;;;;5030498;28;20991;-52
2021/07/22 09:45:37;;;;;;;12.57;11.57;;;30.50;99.90;;;;;;5030100;28;20482;-53
2021/07/22 09:48:12;;;;;;;14.60;12.97;;;30.00;99.90;;;;;;5030543;28;20437;-50
2021/07/22 09:50:43;;;;;;;13.37;12.30;;;29.80;99.90;;;;;;5029815;28;20494;-53
2021/07/22 09:53:13;;;;;;;14.13;12.80;;;29.50;99.90;;;;;;5022919;28;20587;-52
2021/07/22 09:55:42;;;;;;;14.30;13.20;;;29.40;99.90;;;;;;5030151;28;20495;-54
2021/07/22 09:58:10;;;;;;;14.67;13.47;;;29.20;99.90;;;;;;5024763;28;20429;-55
2021/07/22 10:00:41;;;;;;;12.88;11.88;;;29.30;99.90;;;;;;5025374;28;21018;-53
2021/07/22 10:03:10;;;;;;;15.60;14.33;;;29.30;99.90;;;;;;5029414;28;20174;-55
2021/07/22 10:06:04;;;;;;;14.60;13.40;;;29.20;99.90;;;;;;5029762;28;20413;-54
2021/07/22 10:08:32;;;;;;;15.00;13.80;;;28.80;99.90;;;;;;5023617;28;20439;-57
2021/07/22 10:10:59;;;;;;;15.53;14.27;;;28.40;99.90;;;;;;5029545;28;20866;-55
2021/07/22 10:13:42;;;;;;;14.93;13.67;;;28.20;99.90;;;;;;5029630;28;20421;-51
2021/07/22 10:16:18;;;;;;;16.87;15.37;;;28.00;99.90;;;;;;5028932;28;20423;-52
2021/07/22 10:18:46;;;;;;;16.77;15.30;;;27.70;99.90;;;;;;5028906;28;20487;-55
2021/07/22 10:21:12;;;;;;;16.88;15.48;;;27.40;99.90;;;;;;5028512;28;21193;-53
2021/07/22 10:23:39;;;;;;;15.87;14.47;;;27.30;99.90;;;;;;5027176;28;20236;-53
2021/07/22 10:26:05;;;;;;;15.57;14.17;;;27.40;99.90;;;;;;5028735;28;20530;-53
2021/07/22 10:28:31;;;;;;;16.87;15.47;;;27.50;99.90;;;;;;5026548;28;20464;-54
2021/07/22 10:30:57;;;;;;;16.57;15.17;;;27.50;99.90;;;;;;5027581;28;20206;-56
2021/07/22 10:33:24;;;;;;;15.63;14.23;;;27.20;99.90;;;;;;5028075;28;20235;-56
2021/07/22 10:35:54;;;;;;;16.20;14.80;;;27.00;99.90;;;;;;5028098;28;20401;-59
2021/07/22 10:38:21;;;;;;;15.37;13.87;;;27.10;99.90;;;;;;5028683;28;20417;-54
2021/07/22 10:41:03;;;;;;;16.20;14.80;;;27.20;99.90;;;;;;5027387;28;20413;-52
2021/07/22 10:43:43;;;;;;;16.40;14.90;;;27.30;99.90;;;;;;5027180;28;20429;-56
2021/07/22 10:46:20;;;;;;;16.83;15.43;;;27.20;99.90;;;;;;5027012;28;20824;-54
2021/07/22 10:48:46;;;;;;;16.00;14.60;;;27.40;99.90;;;;;;5027276;28;20439;-54
2021/07/22 10:51:19;;;;;;;15.50;14.17;;;27.60;99.90;;;;;;5025529;28;21063;-52
2021/07/22 10:53:47;;;;;;;15.50;14.30;;;27.80;99.90;;;;;;5017236;28;20406;-54
2021/07/22 10:56:43;;;;;;;15.97;14.63;;;28.10;99.90;;;;;;5026590;28;20413;-55
2021/07/22 10:59:09;;;;;;;16.45;15.05;;;28.40;99.90;;;;;;5016400;28;20457;-55
2021/07/22 11:01:43;;;;;;;16.08;14.68;;;28.80;99.90;;;;;;5020375;28;20903;-53
2021/07/22 11:04:09;;;;;;;16.00;14.70;;;29.00;99.90;;;;;;5018497;28;20186;-53
2021/07/22 11:07:00;;;;;;;16.37;15.07;;;29.00;99.90;;;;;;5022683;28;20452;-51
2021/07/22 11:09:45;;;;;;;15.87;14.60;;;29.10;99.90;;;;;;5024337;28;20767;-54
2021/07/22 11:12:36;;;;;;;17.30;15.80;;;28.80;99.90;;;;;;5028296;28;20425;-49
2021/07/22 11:15:11;;;;;;;16.93;15.33;;;28.80;99.90;;;;;;5010508;28;20436;-53
2021/07/22 11:17:37;;;;;;;16.73;15.23;;;29.10;99.90;;;;;;5025205;28;20461;-54
2021/07/22 11:20:21;;;;;;;17.77;16.10;;;28.90;99.90;;;;;;5028428;28;20912;-54
2021/07/22 11:22:50;;;;;;;17.00;15.40;;;29.00;99.90;;;;;;5021574;28;20425;-56
2021/07/22 11:25:17;;;;;;;16.13;14.73;;;29.00;99.90;;;;;;5021206;28;20213;-51
2021/07/22 11:27:47;;;;;;;17.47;15.80;;;29.00;99.90;;;;;;5027988;28;20490;-55
2021/07/22 11:30:15;;;;;;;17.60;15.97;;;29.30;99.90;;;;;;5027576;28;20461;-54
2021/07/22 11:32:41;;;;;;;15.90;14.57;;;29.90;99.90;;;;;;5028304;28;20463;-56
2021/07/22 11:35:07;;;;;;;17.43;15.93;;;30.00;99.90;;;;;;5028531;28;20417;-54
2021/07/22 11:37:33;;;;;;;17.03;15.57;;;30.10;99.90;;;;;;5028044;28;20181;-55
2021/07/22 11:39:58;;;;;;;17.70;16.20;;;30.30;99.90;;;;;;5027600;28;21218;-54
2021/07/22 11:42:24;;;;;;;18.10;16.70;;;30.80;99.90;;;;;;5028256;28;20186;-54
2021/07/22 11:45:04;;;;;;;14.63;13.43;;;30.90;99.90;;;;;;5027679;28;20174;-55
2021/07/22 11:47:31;;;;;;;17.80;16.30;;;31.20;99.90;;;;;;5027752;28;20667;-55
2021/07/22 11:49:58;;;;;;;17.37;15.93;;;31.50;99.90;;;;;;5027113;28;20417;-54
2021/07/22 11:52:27;;;;;;;16.43;15.13;;;31.50;99.90;;;;;;5027041;28;20982;-54
2021/07/22 11:55:09;;;;;;;16.93;15.43;;;31.80;99.90;;;;;;5028209;28;20409;-51
2021/07/22 11:57:42;;;;;;;17.67;16.13;;;32.10;99.90;;;;;;5027829;28;20436;-54
2021/07/22 12:00:20;;;;;;;17.10;15.70;;;32.70;99.90;;;;;;5028096;28;20397;-54
2021/07/22 12:02:52;;;;;;;17.27;15.97;;;33.00;99.90;;;;;;5027022;28;20523;-51
2021/07/22 12:05:25;;;;;;;17.40;15.97;;;33.40;99.90;;;;;;5028492;28;20413;-56
2021/07/22 12:07:53;;;;;;;17.47;16.07;;;33.40;99.90;;;;;;5028430;28;20486;-55
2021/07/22 12:10:29;;;;;;;17.50;16.13;;;33.10;99.90;;;;;;5029727;28;20543;-55
2021/07/22 12:13:00;;;;;;;18.17;16.67;;;32.70;99.90;;;;;;5029910;28;20417;-55
2021/07/22 12:15:26;;;;;;;16.67;15.37;;;32.10;99.90;;;;;;5029768;28;20436;-51
2021/07/22 12:17:52;;;;;;;17.33;15.93;;;31.90;99.90;;;;;;5029780;28;20469;-54
2021/07/22 12:20:17;;;;;;;17.00;15.70;;;32.10;99.90;;;;;;5029624;28;20199;-56
2021/07/22 12:22:43;;;;;;;17.65;15.95;;;32.40;99.90;;;;;;5028108;28;20202;-55
2021/07/22 12:25:13;;;;;;;17.42;16.02;;;32.00;99.90;;;;;;5029709;28;20236;-58
2021/07/22 12:27:49;;;;;;;17.57;16.17;;;31.80;99.90;;;;;;5026637;28;20198;-55
2021/07/22 12:30:27;;;;;;;17.53;16.03;;;31.60;99.90;;;;;;5029134;28;20574;-55
2021/07/22 12:33:05;;;;;;;17.53;16.13;;;31.70;99.90;;;;;;5027553;28;20424;-53
2021/07/22 12:35:34;;;;;;;17.73;16.23;;;31.50;99.90;;;;;;5029403;28;20417;-55
2021/07/22 12:38:02;;;;;;;17.10;15.77;;;31.50;99.90;;;;;;5026622;28;20425;-57
2021/07/22 12:40:45;;;;;;;16.90;15.57;;;31.70;99.90;;;;;;5028587;28;20506;-54
2021/07/22 12:43:21;;;;;;;16.85;15.45;;;31.40;99.90;;;;;;5025378;28;20437;-55